createdAt,value
2023-01-15T00:00:21.200Z,3.95
2023-01-15T00:02:48.598Z,3.75
2023-01-15T00:05:17.583Z,3.23
2023-01-15T00:07:44.880Z,3.75
2023-01-15T00:10:14.443Z,3.63
2023-01-15T00:12:41.798Z,3.38
2023-01-15T00:15:09.836Z,3.70
2023-01-15T00:17:39.303Z,3.87
2023-01-15T00:20:08.875Z,3.80
2023-01-15T00:22:37.683Z,3.45
2023-01-15T00:25:24.112Z,3.80
2023-01-15T00:27:51.751Z,2.92
2023-01-15T00:30:24.366Z,3.50
2023-01-15T00:32:51.737Z,4.28
2023-01-15T00:35:21.817Z,3.55
2023-01-15T00:37:51.111Z,3.53
2023-01-15T00:40:20.499Z,4.05
2023-01-15T00:42:54.276Z,3.63
2023-01-15T00:45:22.560Z,3.42
2023-01-15T00:47:50.936Z,3.30
2023-01-15T00:50:20.064Z,4.03
2023-01-15T00:52:47.470Z,3.80
2023-01-15T00:55:16.253Z,4.27
2023-01-15T00:57:43.637Z,3.72
2023-01-15T01:00:13.963Z,3.95
2023-01-15T01:02:41.518Z,3.85
2023-01-15T01:05:09.719Z,3.10
2023-01-15T01:07:37.444Z,3.20
2023-01-15T01:10:05.504Z,2.85
2023-01-15T01:12:34.895Z,2.90
2023-01-15T01:15:02.591Z,3.47
2023-01-15T01:17:30.083Z,3.83
2023-01-15T01:20:00.626Z,3.33
2023-01-15T01:22:28.129Z,2.95
2023-01-15T01:24:55.464Z,2.88
2023-01-15T01:27:22.777Z,3.65
2023-01-15T01:29:54.838Z,3.92
2023-01-15T01:32:22.159Z,3.00
2023-01-15T01:34:49.577Z,3.67
2023-01-15T01:37:17.052Z,3.25
2023-01-15T01:39:45.881Z,3.35
2023-01-15T01:42:14.408Z,2.88
2023-01-15T01:45:17.458Z,2.40
2023-01-15T01:47:46.018Z,3.33
2023-01-15T01:50:14.966Z,2.40
2023-01-15T01:52:47.587Z,2.58
2023-01-15T01:55:18.296Z,2.83
2023-01-15T01:57:47.220Z,2.43
2023-01-15T02:00:19.529Z,2.90
2023-01-15T02:02:50.147Z,2.40
2023-01-15T02:05:25.935Z,2.42
2023-01-15T02:07:53.599Z,2.15
2023-01-15T02:10:22.280Z,2.43
2023-01-15T02:12:55.865Z,2.28
2023-01-15T02:15:30.503Z,2.10
2023-01-15T02:18:06.697Z,2.65
2023-01-15T02:20:39.667Z,2.47
2023-01-15T02:23:29.549Z,2.20
2023-01-15T02:26:18.702Z,2.03
2023-01-15T02:28:50.233Z,1.70
2023-01-15T02:31:21.504Z,1.85
2023-01-15T02:33:56.135Z,1.95
2023-01-15T02:36:25.223Z,2.23
2023-01-15T02:38:57.096Z,1.90
2023-01-15T02:41:28.308Z,2.03
2023-01-15T02:43:59.251Z,1.73
2023-01-15T02:46:30.410Z,2.00
2023-01-15T02:48:59.065Z,2.80
2023-01-15T02:51:32.594Z,2.45
2023-01-15T02:54:05.217Z,2.63
2023-01-15T02:56:36.265Z,2.10
2023-01-15T02:59:10.193Z,2.17
2023-01-15T03:01:44.752Z,2.10
2023-01-15T03:04:19.965Z,4.13
2023-01-15T03:06:52.082Z,2.72
2023-01-15T03:09:20.784Z,3.13
2023-01-15T03:11:59.248Z,2.72
2023-01-15T03:14:35.918Z,1.93
2023-01-15T03:17:10.397Z,2.40
2023-01-15T03:19:46.028Z,2.33
2023-01-15T03:22:17.323Z,1.33
2023-01-15T03:24:48.824Z,1.38
2023-01-15T03:27:16.325Z,1.50
2023-01-15T03:29:47.499Z,1.58
2023-01-15T03:32:15.651Z,1.67
2023-01-15T03:34:46.361Z,1.55
2023-01-15T03:37:14.486Z,1.60
2023-01-15T03:39:45.029Z,1.33
2023-01-15T03:42:20.261Z,1.35
2023-01-15T03:44:57.777Z,1.38
2023-01-15T03:47:34.433Z,1.92
2023-01-15T03:50:09.065Z,1.33
2023-01-15T03:52:45.785Z,2.00
2023-01-15T03:55:17.663Z,1.67
2023-01-15T03:57:50.215Z,1.20
2023-01-15T04:00:26.977Z,1.52
2023-01-15T04:02:56.472Z,1.33
2023-01-15T04:05:25.409Z,0.83
2023-01-15T04:07:54.744Z,1.33
2023-01-15T04:10:26.988Z,1.10
2023-01-15T04:12:54.680Z,1.67
2023-01-15T04:15:23.420Z,1.42
2023-01-15T04:17:50.741Z,1.10
2023-01-15T04:20:18.644Z,1.13
2023-01-15T04:22:46.544Z,1.27
2023-01-15T04:25:14.022Z,0.93
2023-01-15T04:27:41.388Z,1.52
2023-01-15T04:30:12.420Z,1.00
2023-01-15T04:32:44.184Z,1.52
2023-01-15T04:35:11.529Z,1.65
2023-01-15T04:37:38.867Z,2.03
2023-01-15T04:40:09.016Z,1.73
2023-01-15T04:42:55.492Z,1.43
2023-01-15T04:45:22.797Z,1.42
2023-01-15T04:47:51.593Z,1.67
2023-01-15T04:50:20.464Z,1.48
2023-01-15T04:52:47.847Z,1.40
2023-01-15T04:55:15.284Z,1.60
2023-01-15T04:57:42.624Z,1.33
2023-01-15T05:00:17.560Z,1.50
2023-01-15T05:02:45.361Z,1.52
2023-01-15T05:05:14.135Z,1.33
2023-01-15T05:07:41.588Z,1.93
2023-01-15T05:10:10.396Z,2.00
2023-01-15T05:12:38.600Z,1.95
2023-01-15T05:15:06.820Z,1.40
2023-01-15T05:17:34.324Z,0.98
2023-01-15T05:20:02.380Z,1.10
2023-01-15T05:22:31.847Z,1.60
2023-01-15T05:24:59.191Z,2.03
2023-01-15T05:27:26.595Z,2.03
2023-01-15T05:29:54.680Z,1.35
2023-01-15T05:32:22.046Z,1.00
2023-01-15T05:34:49.381Z,1.45
2023-01-15T05:37:16.795Z,1.00
2023-01-15T05:39:46.357Z,1.70
2023-01-15T05:42:13.808Z,1.67
2023-01-15T05:44:43.964Z,1.27
2023-01-15T05:47:11.424Z,1.80
2023-01-15T05:49:39.484Z,1.50
2023-01-15T05:52:08.336Z,1.27
2023-01-15T05:54:38.432Z,1.70
2023-01-15T05:57:07.136Z,1.27
2023-01-15T05:59:34.638Z,0.88
2023-01-15T06:02:02.183Z,1.55
2023-01-15T06:04:29.508Z,1.40
2023-01-15T06:06:57.391Z,1.17
2023-01-15T06:09:25.561Z,1.50
2023-01-15T06:11:54.153Z,1.30
2023-01-15T06:14:23.006Z,1.88
2023-01-15T06:16:50.577Z,1.10
2023-01-15T06:19:18.015Z,1.20
2023-01-15T06:21:45.908Z,1.67
2023-01-15T06:24:15.821Z,1.13
2023-01-15T06:26:43.177Z,1.17
2023-01-15T06:29:11.093Z,1.90
2023-01-15T06:31:40.097Z,1.17
2023-01-15T06:34:07.572Z,1.10
2023-01-15T06:36:35.309Z,1.83
2023-01-15T06:39:05.162Z,1.10
2023-01-15T06:41:51.283Z,1.30
2023-01-15T06:44:37.357Z,1.27
2023-01-15T06:47:21.489Z,1.77
2023-01-15T06:49:50.045Z,2.22
2023-01-15T06:52:17.582Z,0.90
2023-01-15T06:54:45.191Z,1.92
2023-01-15T06:57:12.646Z,1.60
2023-01-15T06:59:41.441Z,2.47
2023-01-15T07:02:11.855Z,1.50
2023-01-15T07:04:39.252Z,1.90
2023-01-15T07:07:09.757Z,1.00
2023-01-15T07:09:39.054Z,0.60
2023-01-15T07:12:06.719Z,1.80
2023-01-15T07:14:34.066Z,1.60
2023-01-15T07:17:01.467Z,1.67
2023-01-15T07:19:30.247Z,1.63
2023-01-15T07:21:57.631Z,1.60
2023-01-15T07:24:25.008Z,0.73
2023-01-15T07:26:52.311Z,2.20
2023-01-15T07:29:20.781Z,2.40
2023-01-15T07:31:48.227Z,1.80
2023-01-15T07:34:15.628Z,1.52
2023-01-15T07:36:44.512Z,2.00
2023-01-15T07:39:12.610Z,2.17
2023-01-15T07:41:58.665Z,1.17
2023-01-15T07:44:44.840Z,1.42
2023-01-15T07:47:39.117Z,1.50
2023-01-15T07:50:13.739Z,1.83
2023-01-15T07:52:43.645Z,2.65
2023-01-15T07:55:12.918Z,1.00
2023-01-15T07:57:41.236Z,1.30
2023-01-15T08:00:12.986Z,1.25
2023-01-15T08:02:41.319Z,1.60
2023-01-15T08:05:09.924Z,1.00
2023-01-15T08:07:38.449Z,1.48
2023-01-15T08:10:10.055Z,1.10
2023-01-15T08:12:57.494Z,1.05
2023-01-15T08:15:25.441Z,1.80
2023-01-15T08:17:53.257Z,2.65
2023-01-15T08:20:24.201Z,1.35
2023-01-15T08:22:54.225Z,1.63
2023-01-15T08:25:25.019Z,1.23
2023-01-15T08:27:53.657Z,2.30
2023-01-15T08:30:24.317Z,2.00
2023-01-15T08:33:00.118Z,1.48
2023-01-15T08:35:27.550Z,1.88
2023-01-15T08:37:57.604Z,1.73
2023-01-15T08:40:26.333Z,2.50
2023-01-15T08:42:56.458Z,0.80
2023-01-15T08:45:24.802Z,1.33
2023-01-15T08:47:55.973Z,1.67
2023-01-15T08:50:24.049Z,2.40
2023-01-15T08:52:52.569Z,2.20
2023-01-15T08:55:22.873Z,1.90
2023-01-15T08:58:11.531Z,2.22
2023-01-15T09:01:05.297Z,1.63
2023-01-15T09:03:32.950Z,1.30
2023-01-15T09:06:00.914Z,1.60
2023-01-15T09:08:29.034Z,1.77
2023-01-15T09:10:58.325Z,1.20
2023-01-15T09:13:27.265Z,1.45
2023-01-15T09:15:54.834Z,1.90
2023-01-15T09:18:22.266Z,1.37
2023-01-15T09:20:49.702Z,0.98
2023-01-15T09:23:17.228Z,2.28
2023-01-15T09:25:53.016Z,0.70
2023-01-15T09:28:20.530Z,1.75
2023-01-15T09:30:49.323Z,1.13
2023-01-15T09:33:16.873Z,0.60
2023-01-15T09:35:44.433Z,1.75
2023-01-15T09:38:12.575Z,0.98
2023-01-15T09:40:49.407Z,0.88
2023-01-15T09:43:27.567Z,1.53
2023-01-15T09:46:01.171Z,1.40
2023-01-15T09:48:47.130Z,1.88
2023-01-15T09:51:23.527Z,1.45
2023-01-15T09:54:05.526Z,1.88
2023-01-15T09:56:37.162Z,1.87
2023-01-15T09:59:15.633Z,0.63
2023-01-15T10:01:44.880Z,1.98
2023-01-15T10:04:19.319Z,1.83
2023-01-15T10:06:56.195Z,2.20
2023-01-15T10:09:31.553Z,0.97
2023-01-15T10:12:22.789Z,1.35
2023-01-15T10:14:58.571Z,1.48
2023-01-15T10:17:31.602Z,0.60
2023-01-15T10:19:58.973Z,2.65
2023-01-15T10:22:42.391Z,1.70
2023-01-15T10:25:16.704Z,1.67
2023-01-15T10:27:47.233Z,1.85
2023-01-15T10:30:19.349Z,3.00
2023-01-15T10:33:01.959Z,1.30
2023-01-15T10:35:37.800Z,2.67
2023-01-15T10:38:15.408Z,1.30
2023-01-15T10:41:00.219Z,1.40
2023-01-15T10:43:37.698Z,2.20
2023-01-15T10:46:11.899Z,1.23
2023-01-15T10:48:44.704Z,0.90
2023-01-15T10:51:16.377Z,1.50
2023-01-15T10:53:47.207Z,1.88
2023-01-15T10:56:24.905Z,1.48
2023-01-15T10:58:57.090Z,1.73
2023-01-15T11:01:27.451Z,1.20
2023-01-15T11:03:56.366Z,1.60
2023-01-15T11:06:25.809Z,1.88
2023-01-15T11:09:11.955Z,1.90
2023-01-15T11:12:00.927Z,1.85
2023-01-15T11:14:57.544Z,1.37
2023-01-15T11:17:46.731Z,1.17
2023-01-15T11:20:26.167Z,1.30
2023-01-15T11:22:56.373Z,0.82
2023-01-15T11:25:29.602Z,1.90
2023-01-15T11:27:58.706Z,1.27
2023-01-15T11:30:32.156Z,1.23
2023-01-15T11:33:04.157Z,2.40
2023-01-15T11:35:34.453Z,1.05
2023-01-15T11:38:03.527Z,1.40
2023-01-15T11:40:31.102Z,2.00
2023-01-15T11:43:17.039Z,1.33
2023-01-15T11:46:07.633Z,2.22
2023-01-15T11:49:01.284Z,1.85
2023-01-15T11:51:32.660Z,2.92
2023-01-15T11:54:04.926Z,1.00
2023-01-15T11:56:34.813Z,1.25
2023-01-15T11:59:04.493Z,1.08
2023-01-15T12:01:36.350Z,1.20
2023-01-15T12:04:06.412Z,2.45
2023-01-15T12:06:40.409Z,2.53
2023-01-15T12:09:22.681Z,1.95
2023-01-15T12:12:04.427Z,1.27
2023-01-15T12:15:06.958Z,1.85
2023-01-15T12:17:55.369Z,1.33
2023-01-15T12:20:27.022Z,1.87
2023-01-15T12:23:12.176Z,1.33
2023-01-15T12:25:49.737Z,1.38
2023-01-15T12:28:24.733Z,1.27
2023-01-15T12:31:01.788Z,1.88
2023-01-15T12:33:39.746Z,1.47
2023-01-15T12:36:12.322Z,1.60
2023-01-15T12:38:50.527Z,0.95
2023-01-15T12:41:23.291Z,1.98
2023-01-15T12:44:15.214Z,1.25
2023-01-15T12:46:44.740Z,1.40
2023-01-15T12:49:24.131Z,2.55
2023-01-15T12:51:58.520Z,1.35
2023-01-15T12:54:31.468Z,3.30
2023-01-15T12:57:03.878Z,1.50
2023-01-15T12:59:36.426Z,2.53
2023-01-15T13:02:17.470Z,1.92
2023-01-15T13:04:48.701Z,2.40
2023-01-15T13:07:22.107Z,2.05
2023-01-15T13:09:58.046Z,1.88
2023-01-15T13:12:31.768Z,3.07
2023-01-15T13:15:00.868Z,1.80
2023-01-15T13:17:36.015Z,1.95
2023-01-15T13:20:32.055Z,1.60
2023-01-15T13:23:09.063Z,2.97
2023-01-15T13:25:55.786Z,1.50
2023-01-15T13:28:39.469Z,2.95
2023-01-15T13:31:21.768Z,2.17
2023-01-15T13:33:54.033Z,2.45
2023-01-15T13:36:26.242Z,2.50
2023-01-15T13:39:00.554Z,1.43
2023-01-15T13:41:49.711Z,2.17
2023-01-15T13:44:20.422Z,0.85
2023-01-15T13:47:00.302Z,1.88
2023-01-15T13:49:35.698Z,3.10
2023-01-15T13:52:04.790Z,2.10
2023-01-15T13:54:34.367Z,3.58
2023-01-15T13:57:09.623Z,2.20
2023-01-15T13:59:43.689Z,1.77
2023-01-15T14:02:27.949Z,2.47
2023-01-15T14:04:56.306Z,1.87
2023-01-15T14:07:33.330Z,2.38
2023-01-15T14:10:26.617Z,2.95
2023-01-15T14:13:11.261Z,5.95
2023-01-15T14:15:46.104Z,5.18
2023-01-15T14:18:26.987Z,3.90
2023-01-15T14:21:21.253Z,2.55
2023-01-15T14:24:12.902Z,3.42
2023-01-15T14:26:49.996Z,1.88
2023-01-15T14:29:51.232Z,2.45
2023-01-15T14:32:28.640Z,2.30
2023-01-15T14:34:58.364Z,2.63
2023-01-15T14:37:27.990Z,2.72
2023-01-15T14:39:58.903Z,1.55
2023-01-15T14:42:48.164Z,2.25
2023-01-15T14:45:25.858Z,2.30
2023-01-15T14:47:55.536Z,2.08
2023-01-15T14:50:38.045Z,2.08
2023-01-15T14:53:22.340Z,1.88
2023-01-15T14:55:53.840Z,2.25
2023-01-15T14:58:33.800Z,1.83
2023-01-15T15:01:12.157Z,3.70
2023-01-15T15:03:47.280Z,3.70
2023-01-15T15:06:15.141Z,3.88
2023-01-15T15:08:44.148Z,4.25
2023-01-15T15:11:40.485Z,2.20
2023-01-15T15:14:09.929Z,4.55
2023-01-15T15:16:45.254Z,3.17
2023-01-15T15:19:17.179Z,5.68
2023-01-15T15:21:48.360Z,1.45
2023-01-15T15:24:23.107Z,4.40
2023-01-15T15:26:50.789Z,5.82
2023-01-15T15:29:20.267Z,5.38
2023-01-15T15:31:56.307Z,4.45
2023-01-15T15:34:28.217Z,5.03
2023-01-15T15:36:57.330Z,5.20
2023-01-15T15:39:30.051Z,5.72
2023-01-15T15:42:17.695Z,4.18
2023-01-15T15:45:09.956Z,5.50
2023-01-15T15:47:59.177Z,5.15
2023-01-15T15:50:29.295Z,5.63
2023-01-15T15:52:58.268Z,5.80
2023-01-15T15:55:31.649Z,5.47
2023-01-15T15:58:01.461Z,5.65
2023-01-15T16:00:34.208Z,6.03
2023-01-15T16:03:07.302Z,5.47
2023-01-15T16:05:34.969Z,5.18
2023-01-15T16:08:15.465Z,5.75
2023-01-15T16:10:43.905Z,5.15
2023-01-15T16:13:21.625Z,6.53
2023-01-15T16:15:50.990Z,5.10
2023-01-15T16:18:24.993Z,4.40
2023-01-15T16:20:53.330Z,5.05
2023-01-15T16:23:23.859Z,5.55
2023-01-15T16:26:01.914Z,4.85
2023-01-15T16:28:37.310Z,5.10
2023-01-15T16:31:05.454Z,4.57
2023-01-15T16:33:36.063Z,5.22
2023-01-15T16:36:04.944Z,4.68
2023-01-15T16:38:34.685Z,4.85
2023-01-15T16:41:02.655Z,6.10
2023-01-15T16:43:31.537Z,6.88
2023-01-15T16:46:04.623Z,7.90
2023-01-15T16:48:37.992Z,10.02
2023-01-15T16:51:24.595Z,12.02
2023-01-15T16:53:52.182Z,10.50
2023-01-15T16:56:48.048Z,10.13
2023-01-15T16:59:16.835Z,11.82
2023-01-15T17:01:46.628Z,11.73
2023-01-15T17:04:27.495Z,10.65
2023-01-15T17:06:58.138Z,12.97
2023-01-15T17:09:26.987Z,12.10
2023-01-15T17:11:55.348Z,10.02
2023-01-15T17:14:25.448Z,10.63
2023-01-15T17:17:16.132Z,12.30
2023-01-15T17:19:45.231Z,9.87
2023-01-15T17:22:19.075Z,11.73
2023-01-15T17:24:48.066Z,11.90
2023-01-15T17:27:15.624Z,13.23
2023-01-15T17:29:44.389Z,13.80
2023-01-15T17:32:15.804Z,14.47
2023-01-15T17:34:45.108Z,14.70
2023-01-15T17:37:12.608Z,15.63
2023-01-15T17:39:40.260Z,18.38
2023-01-15T17:42:14.036Z,18.98
2023-01-15T17:44:41.663Z,17.73
2023-01-15T17:47:09.383Z,18.90
2023-01-15T17:49:37.324Z,17.60
2023-01-15T17:52:08.722Z,18.23
2023-01-15T17:54:56.563Z,18.73
2023-01-15T17:57:42.525Z,16.07
2023-01-15T18:00:30.166Z,15.20
2023-01-15T18:03:16.294Z,12.75
2023-01-15T18:05:46.398Z,16.20
2023-01-15T18:08:18.774Z,14.55
2023-01-15T18:10:46.288Z,14.43
2023-01-15T18:13:14.286Z,11.93
2023-01-15T18:15:41.778Z,15.65
2023-01-15T18:18:09.895Z,17.27
2023-01-15T18:20:37.275Z,16.00
2023-01-15T18:23:04.935Z,11.43
2023-01-15T18:25:35.107Z,9.95
2023-01-15T18:28:02.779Z,9.60
2023-01-15T18:30:30.474Z,6.10
2023-01-15T18:32:58.068Z,4.10
2023-01-15T18:35:25.412Z,3.37
2023-01-15T18:37:53.219Z,4.03
2023-01-15T18:40:20.980Z,3.55
2023-01-15T18:43:08.141Z,3.05
2023-01-15T18:45:54.666Z,2.72
2023-01-15T18:48:22.284Z,3.57
2023-01-15T18:50:50.077Z,3.22
2023-01-15T18:53:17.650Z,4.93
2023-01-15T18:55:45.203Z,4.88
2023-01-15T18:58:14.202Z,4.70
2023-01-15T19:00:42.341Z,5.13
2023-01-15T19:03:10.044Z,5.05
2023-01-15T19:05:37.676Z,5.28
2023-01-15T19:08:05.357Z,5.53
2023-01-15T19:10:32.731Z,11.00
2023-01-15T19:13:03.155Z,11.60
2023-01-15T19:15:50.491Z,25.33
2023-01-15T19:18:36.659Z,14.65
2023-01-15T19:21:07.085Z,13.02
2023-01-15T19:23:34.917Z,9.30
2023-01-15T19:26:03.602Z,10.80
2023-01-15T19:28:31.206Z,10.07
2023-01-15T19:31:18.748Z,9.45
2023-01-15T19:33:46.583Z,9.23
2023-01-15T19:36:17.104Z,10.00
2023-01-15T19:38:44.691Z,11.73
2023-01-15T19:41:31.563Z,16.52
2023-01-15T19:44:17.638Z,16.20
2023-01-15T19:47:05.450Z,15.43
2023-01-15T19:49:54.255Z,17.08
2023-01-15T19:52:37.976Z,17.00
2023-01-15T19:55:08.783Z,25.45
2023-01-15T19:57:36.672Z,24.58
2023-01-15T20:00:05.296Z,28.35
2023-01-15T20:02:34.961Z,28.13
2023-01-15T20:05:02.911Z,28.07
2023-01-15T20:07:30.663Z,29.80
2023-01-15T20:09:58.144Z,31.15
2023-01-15T20:12:44.374Z,35.20
2023-01-15T20:15:11.846Z,33.03
2023-01-15T20:17:40.977Z,31.80
2023-01-15T20:20:10.274Z,32.35
2023-01-15T20:22:37.962Z,32.45
2023-01-15T20:25:06.400Z,33.75
2023-01-15T20:27:37.491Z,34.35
2023-01-15T20:30:10.046Z,33.70
2023-01-15T20:32:38.753Z,33.78
2023-01-15T20:35:11.647Z,31.55
2023-01-15T20:37:39.461Z,32.97
2023-01-15T20:40:08.751Z,32.15
2023-01-15T20:43:12.022Z,34.33
2023-01-15T20:45:39.938Z,31.30
2023-01-15T20:48:13.861Z,31.48
2023-01-15T20:50:44.195Z,28.77
2023-01-15T20:53:11.845Z,31.30
2023-01-15T20:55:55.744Z,28.23
2023-01-15T20:58:26.805Z,30.08
2023-01-15T21:00:56.618Z,28.30
2023-01-15T21:03:24.171Z,27.65
2023-01-15T21:05:56.749Z,30.35
2023-01-15T21:08:24.601Z,28.50
2023-01-15T21:10:53.616Z,30.30
2023-01-15T21:13:23.045Z,29.00
2023-01-15T21:15:55.815Z,30.77
2023-01-15T21:18:23.630Z,32.13
2023-01-15T21:20:52.379Z,26.53
2023-01-15T21:23:20.017Z,28.48
2023-01-15T21:25:47.737Z,35.92
2023-01-15T21:28:15.393Z,38.42
2023-01-15T21:30:44.662Z,25.25
2023-01-15T21:33:12.224Z,22.27
2023-01-15T21:35:40.513Z,23.75
2023-01-15T21:38:09.618Z,23.10
2023-01-15T21:40:37.699Z,23.08
2023-01-15T21:43:24.508Z,24.95
2023-01-15T21:45:52.197Z,22.30
2023-01-15T21:48:19.720Z,23.05
2023-01-15T21:50:47.402Z,24.85
2023-01-15T21:53:16.219Z,22.23
2023-01-15T21:55:48.979Z,25.05
2023-01-15T21:58:16.667Z,27.03
2023-01-15T22:00:44.073Z,23.45
2023-01-15T22:03:14.029Z,20.98
2023-01-15T22:05:41.492Z,21.83
2023-01-15T22:08:09.297Z,13.68
2023-01-15T22:10:37.986Z,11.57
2023-01-15T22:13:05.372Z,15.10
2023-01-15T22:15:32.822Z,10.68
2023-01-15T22:18:00.379Z,13.95
2023-01-15T22:20:28.734Z,11.80
2023-01-15T22:22:56.064Z,9.43
2023-01-15T22:25:23.444Z,7.25
2023-01-15T22:27:52.215Z,6.22
2023-01-15T22:30:19.796Z,7.03
2023-01-15T22:32:47.190Z,9.05
2023-01-15T22:35:14.600Z,12.33
2023-01-15T22:37:41.915Z,9.52
2023-01-15T22:40:10.697Z,7.07
2023-01-15T22:42:38.193Z,7.63
2023-01-15T22:45:07.608Z,8.93
2023-01-15T22:47:34.973Z,10.17
2023-01-15T22:50:02.308Z,8.55
2023-01-15T22:52:29.736Z,9.32
2023-01-15T22:54:57.207Z,9.63
2023-01-15T22:57:24.551Z,8.18
2023-01-15T22:59:51.871Z,7.90
2023-01-15T23:02:40.655Z,7.78
2023-01-15T23:05:08.933Z,8.05
2023-01-15T23:07:37.204Z,8.50
2023-01-15T23:10:06.258Z,7.00
2023-01-15T23:12:33.857Z,7.43
2023-01-15T23:15:01.359Z,7.40
2023-01-15T23:17:30.101Z,8.10
2023-01-15T23:19:57.462Z,6.75
2023-01-15T23:22:24.805Z,9.82
2023-01-15T23:24:52.250Z,15.63
2023-01-15T23:27:19.657Z,12.20
2023-01-15T23:29:46.957Z,10.30
2023-01-15T23:32:14.331Z,9.30
2023-01-15T23:34:43.171Z,9.02
2023-01-15T23:37:10.654Z,8.97
2023-01-15T23:39:38.013Z,13.02
2023-01-15T23:42:24.145Z,8.88
2023-01-15T23:45:09.736Z,8.85
2023-01-15T23:47:37.143Z,7.95
2023-01-15T23:50:06.629Z,7.87
2023-01-15T23:52:33.887Z,7.63
2023-01-15T23:55:01.299Z,8.90
2023-01-15T23:57:28.675Z,7.78
2023-01-15T23:59:56.252Z,10.27
